createdAt,value
2018-05-17T00:00:11.541Z,100688.64
2018-05-17T00:02:39.073Z,100688.34
2018-05-17T00:05:06.808Z,100690.56
2018-05-17T00:07:34.355Z,100687.63
2018-05-17T00:10:01.859Z,100689.99
2018-05-17T00:12:29.722Z,100697.91
2018-05-17T00:14:57.250Z,100691.91
2018-05-17T00:17:24.769Z,100694.31
2018-05-17T00:19:52.298Z,100696.38
2018-05-17T00:22:19.863Z,100696.11
2018-05-17T00:24:47.518Z,100696.11
2018-05-17T00:27:15.077Z,100702.83
2018-05-17T00:29:42.588Z,100692.36
2018-05-17T00:32:10.129Z,100696.19
2018-05-17T00:34:37.646Z,100697.53
2018-05-17T00:37:05.245Z,100697.13
2018-05-17T00:39:32.759Z,100699.18
2018-05-17T00:42:00.649Z,100697.41
2018-05-17T00:44:28.188Z,100695.88
2018-05-17T00:46:55.701Z,100692.05
2018-05-17T00:49:23.263Z,100684.98
2018-05-17T00:51:50.834Z,100689.21
2018-05-17T00:54:18.350Z,100696.80
2018-05-17T00:56:45.887Z,100695.89
2018-05-17T00:59:13.402Z,100692.20
2018-05-17T01:01:40.982Z,100689.50
2018-05-17T01:04:08.562Z,100690.89
2018-05-17T01:06:36.070Z,100690.34
2018-05-17T01:09:03.645Z,100688.06
2018-05-17T01:11:31.165Z,100684.27
2018-05-17T01:13:58.702Z,100687.96
2018-05-17T01:16:26.206Z,100685.16
2018-05-17T01:18:53.812Z,100684.55
2018-05-17T01:21:21.399Z,100681.55
2018-05-17T01:23:48.967Z,100681.47
2018-05-17T01:26:16.511Z,100678.08
2018-05-17T01:28:44.135Z,100680.29
2018-05-17T01:31:11.648Z,100674.70
2018-05-17T01:33:39.170Z,100673.41
2018-05-17T01:36:06.757Z,100675.39
2018-05-17T01:38:34.270Z,100668.72
2018-05-17T01:41:01.803Z,100665.95
2018-05-17T01:43:29.338Z,100669.50
2018-05-17T01:45:56.849Z,100668.38
2018-05-17T01:48:24.404Z,100670.31
2018-05-17T01:50:52.245Z,100668.95
2018-05-17T01:53:19.829Z,100667.42
2018-05-17T01:55:47.380Z,100667.17
2018-05-17T01:58:14.913Z,100673.54
2018-05-17T02:00:42.488Z,100670.20
2018-05-17T02:03:10.201Z,100668.03
2018-05-17T02:05:37.739Z,100673.12
2018-05-17T02:08:05.297Z,100675.66
2018-05-17T02:10:32.827Z,100678.25
2018-05-17T02:13:00.360Z,100678.58
2018-05-17T02:15:27.964Z,100683.56
2018-05-17T02:17:55.482Z,100679.07
2018-05-17T02:20:23.061Z,100685.52
2018-05-17T02:22:50.572Z,100687.74
2018-05-17T02:25:18.098Z,100685.67
2018-05-17T02:27:45.643Z,100684.66
2018-05-17T02:30:13.535Z,100685.95
2018-05-17T02:32:41.099Z,100681.70
2018-05-17T02:35:08.986Z,100682.55
2018-05-17T02:37:36.531Z,100684.78
2018-05-17T02:40:04.082Z,100693.42
2018-05-17T02:42:31.616Z,100690.77
2018-05-17T02:44:59.178Z,100693.88
2018-05-17T02:47:26.710Z,100691.62
2018-05-17T02:49:54.281Z,100692.03
2018-05-17T02:52:21.856Z,100690.36
2018-05-17T02:54:49.654Z,100688.92
2018-05-17T02:57:17.270Z,100683.55
2018-05-17T02:59:44.783Z,100689.00
2018-05-17T03:02:12.301Z,100688.30
2018-05-17T03:04:39.858Z,100693.11
2018-05-17T03:07:07.360Z,100690.54
2018-05-17T03:09:35.054Z,100693.28
2018-05-17T03:12:02.649Z,100692.66
2018-05-17T03:14:30.588Z,100690.75
2018-05-17T03:16:58.529Z,100688.13
2018-05-17T03:19:26.041Z,100701.76
2018-05-17T03:21:53.599Z,100702.28
2018-05-17T03:24:21.127Z,100703.73
2018-05-17T03:26:48.650Z,100705.65
2018-05-17T03:29:16.214Z,100709.49
2018-05-17T03:31:43.982Z,100710.44
2018-05-17T03:34:11.605Z,100711.31
2018-05-17T03:36:39.229Z,100709.88
2018-05-17T03:39:06.763Z,100713.41
2018-05-17T03:41:34.343Z,100713.23
2018-05-17T03:44:01.879Z,100713.66
2018-05-17T03:46:29.758Z,100713.97
2018-05-17T03:48:57.335Z,100720.49
2018-05-17T03:51:24.867Z,100708.18
2018-05-17T03:53:52.396Z,100719.77
2018-05-17T03:56:19.910Z,100714.70
2018-05-17T03:58:47.823Z,100723.98
2018-05-17T04:01:27.012Z,100719.73
2018-05-17T04:04:06.366Z,100725.00
2018-05-17T04:06:43.403Z,100728.39
2018-05-17T04:09:10.933Z,100726.56
2018-05-17T04:11:38.445Z,100727.60
2018-05-17T04:14:06.305Z,100734.86
2018-05-17T04:16:33.832Z,100733.83
2018-05-17T04:19:01.407Z,100732.37
2018-05-17T04:21:29.041Z,100731.96
2018-05-17T04:23:56.560Z,100738.02
2018-05-17T04:26:24.085Z,100740.09
2018-05-17T04:28:51.632Z,100744.23
2018-05-17T04:31:19.160Z,100742.78
2018-05-17T04:33:46.754Z,100739.02
2018-05-17T04:36:14.299Z,100742.68
2018-05-17T04:38:41.797Z,100737.30
2018-05-17T04:41:09.358Z,100743.20
2018-05-17T04:43:36.941Z,100746.00
2018-05-17T04:46:04.629Z,100750.24
2018-05-17T04:48:32.150Z,100749.42
2018-05-17T04:50:59.704Z,100753.47
2018-05-17T04:53:27.248Z,100756.88
2018-05-17T04:55:54.899Z,100760.19
2018-05-17T04:58:22.430Z,100761.49
2018-05-17T05:00:49.973Z,100763.25
2018-05-17T05:03:17.930Z,100759.16
2018-05-17T05:05:45.450Z,100768.12
2018-05-17T05:08:12.995Z,100769.00
2018-05-17T05:10:40.501Z,100770.30
2018-05-17T05:13:08.122Z,100775.02
2018-05-17T05:15:35.645Z,100773.61
2018-05-17T05:18:03.263Z,100770.36
2018-05-17T05:20:30.820Z,100773.92
2018-05-17T05:22:58.725Z,100783.25
2018-05-17T05:25:26.270Z,100786.31
2018-05-17T05:27:53.893Z,100783.88
2018-05-17T05:30:21.494Z,100780.36
2018-05-17T05:32:49.119Z,100780.83
2018-05-17T05:35:16.931Z,100782.59
2018-05-17T05:37:44.453Z,100784.44
2018-05-17T05:40:12.034Z,100780.23
2018-05-17T05:42:39.577Z,100786.13
2018-05-17T05:45:07.201Z,100788.06
2018-05-17T05:47:34.720Z,100787.03
2018-05-17T05:50:02.249Z,100784.23
2018-05-17T05:52:29.765Z,100786.20
2018-05-17T05:54:57.963Z,100788.80
2018-05-17T05:57:25.497Z,100793.61
2018-05-17T05:59:53.009Z,100793.34
2018-05-17T06:02:20.777Z,100798.05
2018-05-17T06:04:48.284Z,100805.98
2018-05-17T06:07:15.940Z,100803.62
2018-05-17T06:09:43.461Z,100807.17
2018-05-17T06:12:12.119Z,100811.76
2018-05-17T06:14:40.097Z,100808.78
2018-05-17T06:17:07.615Z,100803.25
2018-05-17T06:19:35.147Z,100804.66
2018-05-17T06:22:02.659Z,100814.53
2018-05-17T06:24:30.310Z,100818.67
2018-05-17T06:26:58.311Z,100822.88
2018-05-17T06:29:26.147Z,100823.06
2018-05-17T06:31:53.695Z,100822.47
2018-05-17T06:34:21.465Z,100822.91
2018-05-17T06:36:49.091Z,100821.06
2018-05-17T06:39:16.606Z,100825.17
2018-05-17T06:41:44.673Z,100822.03
2018-05-17T06:44:12.234Z,100816.97
2018-05-17T06:46:39.767Z,100818.69
2018-05-17T06:49:08.057Z,100823.25
2018-05-17T06:51:35.579Z,100826.81
2018-05-17T06:54:03.126Z,100825.16
2018-05-17T06:56:30.960Z,100824.44
2018-05-17T06:58:59.615Z,100821.07
2018-05-17T07:01:27.190Z,100823.40
2018-05-17T07:03:54.727Z,100831.48
2018-05-17T07:06:22.289Z,100813.86
2018-05-17T07:08:49.895Z,100824.30
2018-05-17T07:11:17.479Z,100822.78
2018-05-17T07:13:45.057Z,100825.53
2018-05-17T07:16:12.635Z,100825.91
2018-05-17T07:18:40.617Z,100832.06
2018-05-17T07:21:07.783Z,100831.02
2018-05-17T07:23:35.322Z,100837.05
2018-05-17T07:26:02.827Z,100837.44
2018-05-17T07:28:30.378Z,100844.61
2018-05-17T07:30:57.973Z,100840.81
2018-05-17T07:33:25.541Z,100848.33
2018-05-17T07:35:53.506Z,100851.70
2018-05-17T07:38:21.050Z,100855.52
2018-05-17T07:40:48.583Z,100851.84
2018-05-17T07:43:16.279Z,100850.25
2018-05-17T07:45:44.402Z,100851.92
2018-05-17T07:48:11.985Z,100856.58
2018-05-17T07:50:39.500Z,100854.09
2018-05-17T07:53:07.040Z,100853.33
2018-05-17T07:55:35.624Z,100854.20
2018-05-17T07:58:03.278Z,100861.06
2018-05-17T08:00:30.819Z,100862.30
2018-05-17T08:02:58.451Z,100861.41
2018-05-17T08:05:25.979Z,100860.53
2018-05-17T08:07:53.493Z,100864.73
2018-05-17T08:10:21.016Z,100852.32
2018-05-17T08:12:48.539Z,100859.16
2018-05-17T08:15:16.085Z,100864.62
2018-05-17T08:17:43.601Z,100866.53
2018-05-17T08:20:11.338Z,100869.00
2018-05-17T08:22:38.897Z,100868.83
2018-05-17T08:25:06.425Z,100866.05
2018-05-17T08:27:33.998Z,100873.22
2018-05-17T08:30:01.507Z,100866.56
2018-05-17T08:32:29.066Z,100873.23
2018-05-17T08:34:56.678Z,100875.47
2018-05-17T08:37:24.324Z,100873.41
2018-05-17T08:39:51.850Z,100871.25
2018-05-17T08:42:19.381Z,100874.94
2018-05-17T08:44:46.914Z,100876.00
2018-05-17T08:47:14.435Z,100875.88
2018-05-17T08:49:41.982Z,100874.52
2018-05-17T08:52:09.487Z,100878.22
2018-05-17T08:54:37.060Z,100875.34
2018-05-17T08:57:04.610Z,100880.63
2018-05-17T08:59:32.168Z,100878.97
2018-05-17T09:01:59.729Z,100878.51
2018-05-17T09:04:27.247Z,100879.44
2018-05-17T09:06:54.806Z,100884.34
2018-05-17T09:09:22.753Z,100888.39
2018-05-17T09:11:50.269Z,100891.30
2018-05-17T09:14:18.138Z,100884.08
2018-05-17T09:16:45.685Z,100898.59
2018-05-17T09:19:13.595Z,100895.91
2018-05-17T09:21:41.135Z,100904.76
2018-05-17T09:24:08.692Z,100901.05
2018-05-17T09:26:36.444Z,100900.27
2018-05-17T09:29:04.005Z,100908.09
2018-05-17T09:31:31.554Z,100908.59
2018-05-17T09:33:59.145Z,100909.00
2018-05-17T09:36:26.685Z,100913.02
2018-05-17T09:38:54.223Z,100911.44
2018-05-17T09:41:22.027Z,100922.48
2018-05-17T09:43:49.577Z,100918.78
2018-05-17T09:46:17.095Z,100911.08
2018-05-17T09:48:44.624Z,100923.32
2018-05-17T09:51:12.218Z,100920.56
2018-05-17T09:53:40.227Z,100927.66
2018-05-17T09:56:07.837Z,100924.30
2018-05-17T09:58:35.349Z,100929.30
2018-05-17T10:01:02.881Z,100921.07
2018-05-17T10:03:30.393Z,100930.84
2018-05-17T10:05:57.925Z,100925.73
2018-05-17T10:08:25.463Z,100926.81
2018-05-17T10:10:52.983Z,100939.44
2018-05-17T10:13:20.513Z,100927.28
2018-05-17T10:15:48.090Z,100928.64
2018-05-17T10:18:15.615Z,100934.38
2018-05-17T10:20:43.130Z,100923.62
2018-05-17T10:23:10.772Z,100923.92
2018-05-17T10:25:38.225Z,100927.16
2018-05-17T10:28:05.811Z,100925.27
2018-05-17T10:30:33.553Z,100923.68
2018-05-17T10:33:01.058Z,100921.29
2018-05-17T10:35:28.602Z,100916.08
2018-05-17T10:37:56.118Z,100916.48
2018-05-17T10:40:23.660Z,100914.63
2018-05-17T10:42:51.178Z,100917.45
2018-05-17T10:45:18.732Z,100919.44
2018-05-17T10:47:46.262Z,100925.75
2018-05-17T10:50:13.958Z,100924.80
2018-05-17T10:52:41.485Z,100920.55
2018-05-17T10:55:09.010Z,100928.18
2018-05-17T10:57:36.868Z,100924.09
2018-05-17T11:00:04.396Z,100926.30
2018-05-17T11:02:32.100Z,100922.84
2018-05-17T11:04:59.618Z,100921.69
2018-05-17T11:07:27.182Z,100919.77
2018-05-17T11:09:54.781Z,100923.48
2018-05-17T11:12:22.284Z,100924.61
2018-05-17T11:14:49.827Z,100921.91
2018-05-17T11:17:17.602Z,100928.06
2018-05-17T11:19:45.139Z,100928.95
2018-05-17T11:22:12.657Z,100931.47
2018-05-17T11:24:40.203Z,100929.59
2018-05-17T11:27:07.737Z,100934.95
2018-05-17T11:29:35.353Z,100933.16
2018-05-17T11:32:03.797Z,100931.86
2018-05-17T11:34:31.428Z,100935.23
2018-05-17T11:36:58.951Z,100925.92
2018-05-17T11:39:26.564Z,100935.30
2018-05-17T11:41:54.474Z,100925.84
2018-05-17T11:44:22.006Z,100926.30
2018-05-17T11:46:49.537Z,100924.78
2018-05-17T11:49:17.035Z,100929.95
2018-05-17T11:51:44.560Z,100921.37
2018-05-17T11:54:12.339Z,100925.31
2018-05-17T11:56:39.876Z,100928.41
2018-05-17T11:59:07.665Z,100921.59
2018-05-17T12:01:35.252Z,100922.14
2018-05-17T12:04:02.815Z,100920.50
2018-05-17T12:06:30.337Z,100937.61
2018-05-17T12:08:57.901Z,100933.07
2018-05-17T12:11:25.413Z,100927.86
2018-05-17T12:13:52.954Z,100924.86
2018-05-17T12:16:20.539Z,100925.24
2018-05-17T12:18:48.078Z,100925.34
2018-05-17T12:21:15.626Z,100924.41
2018-05-17T12:23:43.150Z,100924.61
2018-05-17T12:26:10.734Z,100930.64
2018-05-17T12:28:38.298Z,100936.34
2018-05-17T12:31:05.862Z,100927.41
2018-05-17T12:33:33.419Z,100915.59
2018-05-17T12:36:00.989Z,100912.86
2018-05-17T12:38:28.586Z,100913.70
2018-05-17T12:40:56.130Z,100906.81
2018-05-17T12:43:23.705Z,100911.45
2018-05-17T12:45:51.268Z,100912.22
2018-05-17T12:48:20.772Z,100912.51
2018-05-17T12:50:48.421Z,100911.49
2018-05-17T12:53:15.974Z,100909.89
2018-05-17T12:55:43.496Z,100911.70
2018-05-17T12:58:11.701Z,100917.83
2018-05-17T13:00:39.505Z,100901.83
2018-05-17T13:03:07.024Z,100910.83
2018-05-17T13:05:34.622Z,100912.98
2018-05-17T13:08:02.270Z,100909.62
2018-05-17T13:10:29.795Z,100916.70
2018-05-17T13:12:57.397Z,100911.09
2018-05-17T13:15:24.866Z,100903.37
2018-05-17T13:17:52.450Z,100907.48
2018-05-17T13:20:20.705Z,100908.33
2018-05-17T13:22:48.225Z,100911.71
2018-05-17T13:25:15.785Z,100906.70
2018-05-17T13:27:43.286Z,100905.91
2018-05-17T13:30:10.819Z,100904.27
2018-05-17T13:32:38.403Z,100898.33
2018-05-17T13:35:06.094Z,100895.05
2018-05-17T13:37:33.700Z,100896.99
2018-05-17T13:40:01.233Z,100890.78
2018-05-17T13:42:29.068Z,100885.30
2018-05-17T13:44:56.937Z,100892.14
2018-05-17T13:47:24.532Z,100885.20
2018-05-17T13:49:52.113Z,100893.86
2018-05-17T13:52:19.663Z,100888.35
2018-05-17T13:54:47.197Z,100890.20
2018-05-17T13:57:14.827Z,100880.58
2018-05-17T13:59:42.379Z,100897.87
2018-05-17T14:02:09.879Z,100895.85
2018-05-17T14:04:37.424Z,100890.94
2018-05-17T14:07:04.981Z,100887.27
2018-05-17T14:09:32.494Z,100889.31
2018-05-17T14:12:00.149Z,100889.82
2018-05-17T14:14:28.012Z,100886.38
2018-05-17T14:16:55.551Z,100886.88
2018-05-17T14:19:23.058Z,100882.47
2018-05-17T14:21:50.650Z,100884.59
2018-05-17T14:24:18.175Z,100882.20
2018-05-17T14:26:45.688Z,100881.05
2018-05-17T14:29:13.227Z,100886.69
2018-05-17T14:31:40.823Z,100887.70
2018-05-17T14:34:08.376Z,100887.71
2018-05-17T14:36:36.159Z,100888.19
2018-05-17T14:39:03.694Z,100893.13
2018-05-17T14:41:31.234Z,100886.11
2018-05-17T14:43:58.849Z,100884.48
2018-05-17T14:46:26.726Z,100892.01
2018-05-17T14:48:54.252Z,100880.50
2018-05-17T14:51:21.782Z,100885.16
2018-05-17T14:53:49.596Z,100888.41
2018-05-17T14:56:17.118Z,100895.06
2018-05-17T14:58:44.712Z,100885.84
2018-05-17T15:01:13.059Z,100882.55
2018-05-17T15:03:40.538Z,100881.73
2018-05-17T15:06:08.056Z,100877.22
2018-05-17T15:08:35.609Z,100876.89
2018-05-17T15:11:03.275Z,100884.80
2018-05-17T15:13:31.016Z,100881.08
2018-05-17T15:15:58.558Z,100881.97
2018-05-17T15:18:26.088Z,100878.05
2018-05-17T15:20:53.644Z,100878.48
2018-05-17T15:23:21.979Z,100876.16
2018-05-17T15:25:49.539Z,100872.88
2018-05-17T15:28:17.092Z,100883.93
2018-05-17T15:30:44.621Z,100882.14
2018-05-17T15:33:12.234Z,100885.36
2018-05-17T15:35:39.794Z,100892.75
2018-05-17T15:38:07.324Z,100891.67
2018-05-17T15:40:34.833Z,100886.21
2018-05-17T15:43:02.375Z,100877.47
2018-05-17T15:45:30.025Z,100877.86
2018-05-17T15:47:57.537Z,100880.60
2018-05-17T15:50:25.058Z,100882.83
2018-05-17T15:52:52.641Z,100882.66
2018-05-17T15:55:20.187Z,100882.73
2018-05-17T15:57:47.721Z,100887.84
2018-05-17T16:00:15.266Z,100883.59
2018-05-17T16:02:42.869Z,100884.45
2018-05-17T16:05:10.390Z,100879.48
2018-05-17T16:07:37.948Z,100879.99
2018-05-17T16:10:05.505Z,100880.41
2018-05-17T16:12:33.036Z,100889.56
2018-05-17T16:15:00.724Z,100888.61
2018-05-17T16:17:28.219Z,100887.66
2018-05-17T16:19:56.067Z,100890.45
2018-05-17T16:22:23.626Z,100890.67
2018-05-17T16:24:51.175Z,100892.91
2018-05-17T16:27:19.052Z,100893.99
2018-05-17T16:29:46.515Z,100889.75
2018-05-17T16:32:14.037Z,100898.77
2018-05-17T16:34:41.596Z,100894.78
2018-05-17T16:37:09.192Z,100897.19
2018-05-17T16:39:36.713Z,100893.16
2018-05-17T16:42:04.295Z,100899.30
2018-05-17T16:44:32.813Z,100901.86
2018-05-17T16:47:00.389Z,100904.05
2018-05-17T16:49:27.895Z,100906.62
2018-05-17T16:51:55.455Z,100906.37
2018-05-17T16:54:22.985Z,100906.05
2018-05-17T16:56:50.811Z,100907.73
2018-05-17T16:59:18.573Z,100906.65
2018-05-17T17:01:46.107Z,100917.77
2018-05-17T17:04:13.722Z,100912.61
2018-05-17T17:06:41.258Z,100914.39
2018-05-17T17:09:08.795Z,100919.79
2018-05-17T17:11:36.415Z,100924.89
2018-05-17T17:14:04.235Z,100920.59
2018-05-17T17:16:31.776Z,100926.28
2018-05-17T17:18:59.469Z,100923.84
2018-05-17T17:21:27.002Z,100930.73
2018-05-17T17:23:54.630Z,100922.15
2018-05-17T17:26:22.282Z,100924.74
2018-05-17T17:28:49.789Z,100927.51
2018-05-17T17:31:17.786Z,100923.19
2018-05-17T17:33:45.377Z,100927.50
2018-05-17T17:36:13.046Z,100926.13
2018-05-17T17:38:40.540Z,100928.45
2018-05-17T17:41:08.050Z,100932.54
2018-05-17T17:43:35.702Z,100935.37
2018-05-17T17:46:03.323Z,100934.38
2018-05-17T17:48:31.023Z,100933.70
2018-05-17T17:50:58.669Z,100950.59
2018-05-17T17:53:26.215Z,100944.77
2018-05-17T17:55:53.753Z,100938.69
2018-05-17T17:58:21.601Z,100942.09
2018-05-17T18:00:49.438Z,100942.27
2018-05-17T18:03:17.304Z,100939.64
2018-05-17T18:05:45.129Z,100949.37
2018-05-17T18:08:12.781Z,100951.89
2018-05-17T18:10:40.308Z,100950.27
2018-05-17T18:13:07.833Z,100951.54
2018-05-17T18:15:35.358Z,100954.64
2018-05-17T18:18:02.899Z,100960.72
2018-05-17T18:20:30.511Z,100963.20
2018-05-17T18:22:58.138Z,100961.55
2018-05-17T18:25:25.803Z,100963.47
2018-05-17T18:27:53.361Z,100964.82
2018-05-17T18:30:20.901Z,100963.99
2018-05-17T18:32:48.465Z,100965.17
2018-05-17T18:35:16.019Z,100970.51
2018-05-17T18:37:43.532Z,100975.43
2018-05-17T18:40:11.283Z,100982.80
2018-05-17T18:42:38.939Z,100987.72
2018-05-17T18:45:06.461Z,100989.77
2018-05-17T18:47:34.113Z,100992.98
2018-05-17T18:50:01.828Z,100993.63
2018-05-17T18:52:29.396Z,100999.66
2018-05-17T18:54:56.922Z,101003.25
2018-05-17T18:57:24.545Z,101003.09
2018-05-17T18:59:52.069Z,101009.94
2018-05-17T19:02:19.860Z,101020.15
2018-05-17T19:04:47.393Z,101015.00
2018-05-17T19:07:15.221Z,101026.22
2018-05-17T19:09:43.561Z,101029.87
2018-05-17T19:12:11.904Z,101032.99
2018-05-17T19:14:39.425Z,101036.43
2018-05-17T19:17:06.968Z,101036.29
2018-05-17T19:19:34.642Z,101044.61
2018-05-17T19:22:02.238Z,101053.00
2018-05-17T19:24:29.805Z,101049.84
2018-05-17T19:26:57.422Z,101050.36
2018-05-17T19:29:24.998Z,101057.78
2018-05-17T19:31:52.583Z,101072.61
2018-05-17T19:34:20.138Z,101072.27
2018-05-17T19:36:47.757Z,101074.89
2018-05-17T19:39:15.282Z,101065.06
2018-05-17T19:41:42.954Z,101076.24
2018-05-17T19:44:10.457Z,101080.06
2018-05-17T19:46:38.106Z,101082.06
2018-05-17T19:49:05.643Z,101088.11
2018-05-17T19:51:33.341Z,101084.08
2018-05-17T19:54:00.850Z,101098.36
2018-05-17T19:56:28.362Z,101087.52
2018-05-17T19:58:56.045Z,101092.63
2018-05-17T20:01:23.587Z,101098.36
2018-05-17T20:03:51.167Z,101094.97
2018-05-17T20:06:18.808Z,101099.97
2018-05-17T20:08:46.503Z,101103.42
2018-05-17T20:11:14.089Z,101105.69
2018-05-17T20:13:41.765Z,101113.02
2018-05-17T20:16:09.321Z,101114.47
2018-05-17T20:18:37.025Z,101111.75
2018-05-17T20:21:04.459Z,101112.80
2018-05-17T20:23:32.046Z,101104.90
2018-05-17T20:25:59.715Z,101116.83
2018-05-17T20:28:27.302Z,101118.87
2018-05-17T20:30:54.885Z,101118.44
2018-05-17T20:33:22.528Z,101111.58
2018-05-17T20:35:52.318Z,101121.33
2018-05-17T20:38:20.002Z,101122.06
2018-05-17T20:40:47.558Z,101125.66
2018-05-17T20:43:15.093Z,101131.08
2018-05-17T20:45:42.643Z,101133.84
2018-05-17T20:48:11.154Z,101132.53
2018-05-17T20:50:38.688Z,101139.91
2018-05-17T20:53:06.224Z,101141.72
2018-05-17T20:55:33.741Z,101146.48
2018-05-17T20:58:01.403Z,101149.22
2018-05-17T21:00:28.999Z,101151.36
2018-05-17T21:02:57.293Z,101156.33
2018-05-17T21:05:25.924Z,101160.70
2018-05-17T21:07:53.521Z,101164.62
2018-05-17T21:10:21.344Z,101169.66
2018-05-17T21:12:49.183Z,101170.77
2018-05-17T21:15:16.823Z,101177.20
2018-05-17T21:17:44.666Z,101174.08
2018-05-17T21:20:14.735Z,101178.97
2018-05-17T21:22:42.258Z,101176.42
2018-05-17T21:25:10.049Z,101180.82
2018-05-17T21:27:37.650Z,101185.44
2018-05-17T21:30:05.160Z,101179.40
2018-05-17T21:32:32.816Z,101171.92
2018-05-17T21:35:00.476Z,101180.70
2018-05-17T21:37:28.735Z,101186.23
2018-05-17T21:39:56.360Z,101185.23
2018-05-17T21:42:24.515Z,101186.92
2018-05-17T21:44:52.128Z,101189.00
2018-05-17T21:47:19.629Z,101191.70
2018-05-17T21:49:47.356Z,101193.26
2018-05-17T21:52:14.861Z,101197.33
2018-05-17T21:54:43.187Z,101200.05
2018-05-17T21:57:10.760Z,101207.31
2018-05-17T21:59:38.273Z,101209.83
2018-05-17T22:02:05.820Z,101206.33
2018-05-17T22:04:33.354Z,101205.91
2018-05-17T22:07:01.818Z,101214.31
2018-05-17T22:09:29.373Z,101213.80
2018-05-17T22:11:57.027Z,101220.45
2018-05-17T22:14:24.711Z,101221.28
2018-05-17T22:16:52.249Z,101219.02
2018-05-17T22:19:19.910Z,101220.69
2018-05-17T22:21:47.415Z,101218.62
2018-05-17T22:24:15.002Z,101213.23
2018-05-17T22:26:42.543Z,101218.01
2018-05-17T22:29:10.435Z,101221.11
2018-05-17T22:31:37.905Z,101227.73
2018-05-17T22:34:05.445Z,101228.78
2018-05-17T22:36:33.010Z,101224.73
2018-05-17T22:39:00.505Z,101224.23
2018-05-17T22:41:28.072Z,101228.38
2018-05-17T22:43:56.020Z,101225.25
2018-05-17T22:46:23.887Z,101230.43
2018-05-17T22:48:51.860Z,101236.42
2018-05-17T22:51:19.392Z,101225.41
2018-05-17T22:53:47.044Z,101230.89
2018-05-17T22:59:13.912Z,101228.60
2018-05-17T23:01:41.462Z,101231.39
2018-05-17T23:04:09.009Z,101226.62
2018-05-17T23:06:36.569Z,101229.13
2018-05-17T23:09:04.101Z,101220.83
2018-05-17T23:11:31.661Z,101226.19
2018-05-17T23:13:59.386Z,101222.47
2018-05-17T23:16:26.934Z,101222.89
2018-05-17T23:18:54.885Z,101223.08
2018-05-17T23:21:22.410Z,101220.61
2018-05-17T23:23:49.935Z,101217.87
2018-05-17T23:26:17.657Z,101224.56
2018-05-17T23:28:45.500Z,101226.63
2018-05-17T23:31:13.004Z,101228.05
2018-05-17T23:33:41.027Z,101244.84
2018-05-17T23:36:08.550Z,101233.82
2018-05-17T23:38:36.073Z,101239.20
2018-05-17T23:41:15.417Z,101233.11
2018-05-17T23:43:43.687Z,101235.66
2018-05-17T23:46:11.197Z,101231.78
2018-05-17T23:48:38.758Z,101238.09
2018-05-17T23:51:06.275Z,101231.20
2018-05-17T23:53:34.469Z,101241.10
2018-05-17T23:56:02.207Z,101241.91
2018-05-17T23:58:29.710Z,101238.99
